sensor_id;sensor_type;location;lat;lon;timestamp;pressure;altitude;pressure_sealevel;temperature;humidity
61961;BME280;47923;42.506;24.192;2022-08-19T00:01:52;95221.41;;;18.13;63.17
61961;BME280;47923;42.506;24.192;2022-08-19T00:04:23;95218.19;;;18.22;63.36
61961;BME280;47923;42.506;24.192;2022-08-19T00:06:49;95165.97;;;17.86;63.38
61961;BME280;47923;42.506;24.192;2022-08-19T00:09:17;95148.19;;;18.01;62.82
61961;BME280;47923;42.506;24.192;2022-08-19T00:11:44;95196.56;;;18.31;63.02
61961;BME280;47923;42.506;24.192;2022-08-19T00:14:11;95057.59;;;17.18;62.45
61961;BME280;47923;42.506;24.192;2022-08-19T00:16:39;95207.84;;;18.33;62.19
61961;BME280;47923;42.506;24.192;2022-08-19T00:19:06;95191.75;;;18.62;61.54
61961;BME280;47923;42.506;24.192;2022-08-19T00:21:32;95138.63;;;18.13;61.70
61961;BME280;47923;42.506;24.192;2022-08-19T00:23:58;95107.00;;;18.12;61.80
61961;BME280;47923;42.506;24.192;2022-08-19T00:26:25;95030.13;;;17.32;62.10
61961;BME280;47923;42.506;24.192;2022-08-19T00:28:50;94945.63;;;16.68;62.76
61961;BME280;47923;42.506;24.192;2022-08-19T00:31:16;95152.78;;;18.08;63.27
61961;BME280;47923;42.506;24.192;2022-08-19T00:33:42;95106.56;;;17.63;62.98
61961;BME280;47923;42.506;24.192;2022-08-19T00:36:08;95193.94;;;18.24;63.49
61961;BME280;47923;42.506;24.192;2022-08-19T00:38:35;94995.19;;;16.93;63.27
61961;BME280;47923;42.506;24.192;2022-08-19T00:41:01;95048.44;;;17.35;63.29
61961;BME280;47923;42.506;24.192;2022-08-19T00:43:27;95053.91;;;17.32;63.41
61961;BME280;47923;42.506;24.192;2022-08-19T00:45:53;95182.09;;;18.07;63.97
61961;BME280;47923;42.506;24.192;2022-08-19T00:48:20;95179.38;;;18.04;64.12
61961;BME280;47923;42.506;24.192;2022-08-19T00:50:47;95000.88;;;16.75;64.10
61961;BME280;47923;42.506;24.192;2022-08-19T00:53:15;94964.06;;;16.56;63.73
61961;BME280;47923;42.506;24.192;2022-08-19T00:55:46;95075.00;;;17.31;64.01
61961;BME280;47923;42.506;24.192;2022-08-19T00:58:15;95184.19;;;17.96;64.29
61961;BME280;47923;42.506;24.192;2022-08-19T01:00:43;95174.47;;;17.91;64.07
61961;BME280;47923;42.506;24.192;2022-08-19T01:03:13;95204.53;;;17.91;64.74
61961;BME280;47923;42.506;24.192;2022-08-19T01:05:41;94978.69;;;16.36;65.36
61961;BME280;47923;42.506;24.192;2022-08-19T01:08:08;95139.97;;;17.44;65.62
61961;BME280;47923;42.506;24.192;2022-08-19T01:10:39;95099.75;;;17.17;66.35
61961;BME280;47923;42.506;24.192;2022-08-19T01:13:06;95178.97;;;17.44;65.82
61961;BME280;47923;42.506;24.192;2022-08-19T01:15:34;95192.81;;;17.60;65.48
61961;BME280;47923;42.506;24.192;2022-08-19T01:18:05;95195.53;;;17.60;66.53
61961;BME280;47923;42.506;24.192;2022-08-19T01:20:31;95157.16;;;17.40;67.11
61961;BME280;47923;42.506;24.192;2022-08-19T01:22:58;95095.09;;;16.83;66.57
61961;BME280;47923;42.506;24.192;2022-08-19T01:25:28;95189.38;;;17.56;66.31
61961;BME280;47923;42.506;24.192;2022-08-19T01:27:54;94903.22;;;15.54;66.71
61961;BME280;47923;42.506;24.192;2022-08-19T01:30:27;95190.75;;;17.37;66.66
61961;BME280;47923;42.506;24.192;2022-08-19T01:32:53;94984.41;;;15.73;67.18
61961;BME280;47923;42.506;24.192;2022-08-19T01:35:21;95117.75;;;16.77;67.80
61961;BME280;47923;42.506;24.192;2022-08-19T01:37:57;95062.47;;;16.32;68.98
61961;BME280;47923;42.506;24.192;2022-08-19T01:40:26;95209.69;;;17.18;68.92
61961;BME280;47923;42.506;24.192;2022-08-19T01:42:53;95069.91;;;16.27;69.06
61961;BME280;47923;42.506;24.192;2022-08-19T01:45:20;95218.78;;;17.07;68.86
61961;BME280;47923;42.506;24.192;2022-08-19T01:47:47;95197.38;;;17.02;69.16
61961;BME280;47923;42.506;24.192;2022-08-19T01:50:12;95101.91;;;16.20;69.21
61961;BME280;47923;42.506;24.192;2022-08-19T01:52:43;95062.34;;;16.01;68.78
61961;BME280;47923;42.506;24.192;2022-08-19T01:55:12;95097.63;;;16.19;69.59
61961;BME280;47923;42.506;24.192;2022-08-19T01:57:39;95050.47;;;15.77;70.80
61961;BME280;47923;42.506;24.192;2022-08-19T02:00:09;95060.97;;;15.79;70.88
61961;BME280;47923;42.506;24.192;2022-08-19T02:02:36;95086.19;;;15.86;71.36
61961;BME280;47923;42.506;24.192;2022-08-19T02:05:01;95040.47;;;15.63;71.42
61961;BME280;47923;42.506;24.192;2022-08-19T02:07:27;95114.84;;;16.09;71.14
61961;BME280;47923;42.506;24.192;2022-08-19T02:09:53;95120.72;;;16.03;71.57
61961;BME280;47923;42.506;24.192;2022-08-19T02:12:20;95084.81;;;15.67;71.67
61961;BME280;47923;42.506;24.192;2022-08-19T02:14:46;95084.50;;;15.51;71.69
61961;BME280;47923;42.506;24.192;2022-08-19T02:17:11;94962.13;;;14.67;72.43
61961;BME280;47923;42.506;24.192;2022-08-19T02:19:37;95028.31;;;15.12;71.75
61961;BME280;47923;42.506;24.192;2022-08-19T02:22:02;95029.53;;;15.08;72.02
61961;BME280;47923;42.506;24.192;2022-08-19T02:24:29;95149.47;;;16.08;72.83
61961;BME280;47923;42.506;24.192;2022-08-19T02:26:54;95096.09;;;15.66;72.65
61961;BME280;47923;42.506;24.192;2022-08-19T02:29:20;94713.25;;;13.19;71.60
61961;BME280;47923;42.506;24.192;2022-08-19T02:31:46;95106.13;;;15.76;72.79
61961;BME280;47923;42.506;24.192;2022-08-19T02:34:11;95161.19;;;16.05;73.58
61961;BME280;47923;42.506;24.192;2022-08-19T02:36:37;95163.94;;;16.01;73.75
61961;BME280;47923;42.506;24.192;2022-08-19T02:39:03;95194.81;;;16.36;73.97
61961;BME280;47923;42.506;24.192;2022-08-19T02:41:31;94984.53;;;14.89;73.20
61961;BME280;47923;42.506;24.192;2022-08-19T02:43:59;95224.41;;;16.38;72.09
61961;BME280;47923;42.506;24.192;2022-08-19T02:46:28;95066.56;;;15.54;73.31
61961;BME280;47923;42.506;24.192;2022-08-19T02:48:57;95100.00;;;15.61;72.75
61961;BME280;47923;42.506;24.192;2022-08-19T02:51:25;95157.22;;;16.13;73.42
61961;BME280;47923;42.506;24.192;2022-08-19T02:53:51;95230.91;;;16.54;73.10
61961;BME280;47923;42.506;24.192;2022-08-19T02:56:18;95238.34;;;16.50;72.62
61961;BME280;47923;42.506;24.192;2022-08-19T02:58:44;95234.47;;;16.48;72.45
61961;BME280;47923;42.506;24.192;2022-08-19T03:01:10;95152.75;;;15.85;73.25
61961;BME280;47923;42.506;24.192;2022-08-19T03:03:37;95245.50;;;16.30;73.29
61961;BME280;47923;42.506;24.192;2022-08-19T03:06:05;95224.91;;;16.22;73.00
61961;BME280;47923;42.506;24.192;2022-08-19T03:08:31;95119.88;;;15.47;72.61
61961;BME280;47923;42.506;24.192;2022-08-19T03:10:56;95155.91;;;15.80;74.18
61961;BME280;47923;42.506;24.192;2022-08-19T03:13:22;95021.88;;;14.85;74.09
61961;BME280;47923;42.506;24.192;2022-08-19T03:15:48;94773.72;;;13.23;74.47
61961;BME280;47923;42.506;24.192;2022-08-19T03:18:15;95165.72;;;15.63;73.67
61961;BME280;47923;42.506;24.192;2022-08-19T03:20:43;95240.91;;;16.20;73.73
61961;BME280;47923;42.506;24.192;2022-08-19T03:23:08;95050.59;;;14.93;74.76
61961;BME280;47923;42.506;24.192;2022-08-19T03:25:42;95249.06;;;16.20;74.57
61961;BME280;47923;42.506;24.192;2022-08-19T03:28:13;95251.44;;;16.14;74.57
61961;BME280;47923;42.506;24.192;2022-08-19T03:30:42;95258.84;;;16.17;73.97
61961;BME280;47923;42.506;24.192;2022-08-19T03:33:09;94838.00;;;13.51;73.84
61961;BME280;47923;42.506;24.192;2022-08-19T03:35:35;95063.34;;;15.03;74.34
61961;BME280;47923;42.506;24.192;2022-08-19T03:38:04;95276.31;;;16.23;74.27
61961;BME280;47923;42.506;24.192;2022-08-19T03:40:31;95048.31;;;14.81;75.28
61961;BME280;47923;42.506;24.192;2022-08-19T03:42:57;95116.44;;;15.43;74.33
61961;BME280;47923;42.506;24.192;2022-08-19T03:45:23;95028.47;;;14.87;73.41
61961;BME280;47923;42.506;24.192;2022-08-19T03:47:49;95126.47;;;15.54;74.39
61961;BME280;47923;42.506;24.192;2022-08-19T03:50:15;95275.84;;;16.36;73.83
61961;BME280;47923;42.506;24.192;2022-08-19T03:52:40;95126.53;;;15.43;72.99
61961;BME280;47923;42.506;24.192;2022-08-19T03:55:06;95272.25;;;16.49;72.47
61961;BME280;47923;42.506;24.192;2022-08-19T03:57:33;95248.25;;;16.26;72.74
61961;BME280;47923;42.506;24.192;2022-08-19T04:00:00;95305.28;;;16.62;72.11
61961;BME280;47923;42.506;24.192;2022-08-19T04:02:26;95148.47;;;15.88;72.03
61961;BME280;47923;42.506;24.192;2022-08-19T04:04:53;95165.88;;;16.01;71.55
61961;BME280;47923;42.506;24.192;2022-08-19T04:07:22;95106.53;;;15.74;71.58
61961;BME280;47923;42.506;24.192;2022-08-19T04:09:48;95250.72;;;18.13;66.26
61961;BME280;47923;42.506;24.192;2022-08-19T04:12:14;95278.75;;;20.60;58.95
61961;BME280;47923;42.506;24.192;2022-08-19T04:14:40;95108.34;;;20.38;55.06
61961;BME280;47923;42.506;24.192;2022-08-19T04:17:05;95161.34;;;20.52;55.00
61961;BME280;47923;42.506;24.192;2022-08-19T04:19:32;95269.69;;;20.07;57.29
61961;BME280;47923;42.506;24.192;2022-08-19T04:21:58;95295.66;;;20.59;57.53
61961;BME280;47923;42.506;24.192;2022-08-19T04:24:24;95139.97;;;20.76;54.08
61961;BME280;47923;42.506;24.192;2022-08-19T04:26:50;95215.63;;;21.22;54.12
61961;BME280;47923;42.506;24.192;2022-08-19T04:29:22;95172.84;;;20.47;54.95
61961;BME280;47923;42.506;24.192;2022-08-19T04:31:52;95302.63;;;20.96;56.27
61961;BME280;47923;42.506;24.192;2022-08-19T04:34:20;95196.75;;;20.46;55.94
61961;BME280;47923;42.506;24.192;2022-08-19T04:36:47;95286.91;;;20.96;55.80
61961;BME280;47923;42.506;24.192;2022-08-19T04:39:19;95200.91;;;20.34;56.17
61961;BME280;47923;42.506;24.192;2022-08-19T04:41:45;95300.03;;;21.96;53.76
61961;BME280;47923;42.506;24.192;2022-08-19T04:44:35;95142.25;;;22.66;48.24
61961;BME280;47923;42.506;24.192;2022-08-19T04:47:01;95269.44;;;23.12;49.74
61961;BME280;47923;42.506;24.192;2022-08-19T04:49:30;95184.00;;;22.01;50.75
61961;BME280;47923;42.506;24.192;2022-08-19T04:51:55;95191.44;;;21.88;51.76
61961;BME280;47923;42.506;24.192;2022-08-19T04:54:23;95296.25;;;22.86;50.70
61961;BME280;47923;42.506;24.192;2022-08-19T04:56:50;95132.50;;;21.76;50.68
61961;BME280;47923;42.506;24.192;2022-08-19T04:59:17;95139.06;;;21.53;51.74
61961;BME280;47923;42.506;24.192;2022-08-19T05:01:44;95193.72;;;22.44;50.25
61961;BME280;47923;42.506;24.192;2022-08-19T05:04:13;95164.13;;;22.22;49.95
61961;BME280;47923;42.506;24.192;2022-08-19T05:06:39;95259.22;;;22.74;50.01
61961;BME280;47923;42.506;24.192;2022-08-19T05:09:05;95250.84;;;22.65;50.71
61961;BME280;47923;42.506;24.192;2022-08-19T05:11:33;95192.94;;;22.30;50.57
61961;BME280;47923;42.506;24.192;2022-08-19T05:13:59;95277.38;;;22.59;50.81
61961;BME280;47923;42.506;24.192;2022-08-19T05:16:26;95196.38;;;21.67;52.04
61961;BME280;47923;42.506;24.192;2022-08-19T05:18:52;95190.25;;;21.76;52.28
61961;BME280;47923;42.506;24.192;2022-08-19T05:21:36;95128.25;;;22.73;48.65
61961;BME280;47923;42.506;24.192;2022-08-19T05:24:22;95290.03;;;25.72;43.71
61961;BME280;47923;42.506;24.192;2022-08-19T05:26:50;95172.97;;;26.51;40.27
61961;BME280;47923;42.506;24.192;2022-08-19T05:29:18;95124.31;;;28.89;34.87
61961;BME280;47923;42.506;24.192;2022-08-19T05:31:45;95078.34;;;28.18;35.00
61961;BME280;47923;42.506;24.192;2022-08-19T05:34:12;95162.19;;;28.87;35.03
61961;BME280;47923;42.506;24.192;2022-08-19T05:36:40;95180.84;;;29.62;33.53
61961;BME280;47923;42.506;24.192;2022-08-19T05:39:07;95152.56;;;30.59;31.89
61961;BME280;47923;42.506;24.192;2022-08-19T05:41:33;95185.41;;;34.11;26.95
61961;BME280;47923;42.506;24.192;2022-08-19T05:44:02;95251.34;;;36.06;24.34
61961;BME280;47923;42.506;24.192;2022-08-19T05:46:28;95031.31;;;35.22;24.17
61961;BME280;47923;42.506;24.192;2022-08-19T05:48:54;95042.81;;;36.66;22.01
61961;BME280;47923;42.506;24.192;2022-08-19T05:51:22;95193.78;;;38.92;20.51
61961;BME280;47923;42.506;24.192;2022-08-19T05:53:48;95234.38;;;39.96;19.37
61961;BME280;47923;42.506;24.192;2022-08-19T05:56:15;95207.31;;;39.43;19.75
61961;BME280;47923;42.506;24.192;2022-08-19T05:58:42;95280.81;;;40.08;19.87
61961;BME280;47923;42.506;24.192;2022-08-19T06:01:12;95282.72;;;40.80;19.52
61961;BME280;47923;42.506;24.192;2022-08-19T06:03:38;95193.81;;;40.75;17.97
61961;BME280;47923;42.506;24.192;2022-08-19T06:06:06;95283.81;;;43.37;16.23
61961;BME280;47923;42.506;24.192;2022-08-19T06:08:33;95280.47;;;44.35;16.02
61961;BME280;47923;42.506;24.192;2022-08-19T06:11:22;95290.56;;;44.90;14.70
61961;BME280;47923;42.506;24.192;2022-08-19T06:13:51;95221.19;;;44.41;15.06
61961;BME280;47923;42.506;24.192;2022-08-19T06:16:21;95285.34;;;43.73;15.99
61961;BME280;47923;42.506;24.192;2022-08-19T06:18:49;95252.31;;;43.77;15.02
61961;BME280;47923;42.506;24.192;2022-08-19T06:21:17;95153.59;;;43.88;14.33
61961;BME280;47923;42.506;24.192;2022-08-19T06:23:44;95220.00;;;44.17;14.45
61961;BME280;47923;42.506;24.192;2022-08-19T06:26:14;95124.19;;;44.02;14.29
61961;BME280;47923;42.506;24.192;2022-08-19T06:28:40;95230.31;;;45.50;13.55
61961;BME280;47923;42.506;24.192;2022-08-19T06:31:17;95293.94;;;46.78;12.57
61961;BME280;47923;42.506;24.192;2022-08-19T06:33:45;95263.09;;;45.78;12.81
61961;BME280;47923;42.506;24.192;2022-08-19T06:36:19;95128.63;;;46.94;11.68
61961;BME280;47923;42.506;24.192;2022-08-19T06:38:44;95209.13;;;48.98;10.75
61961;BME280;47923;42.506;24.192;2022-08-19T06:41:10;95216.50;;;49.13;10.89
61961;BME280;47923;42.506;24.192;2022-08-19T06:43:36;95223.31;;;50.04;10.96
61961;BME280;47923;42.506;24.192;2022-08-19T06:46:02;95190.44;;;48.97;11.24
61961;BME280;47923;42.506;24.192;2022-08-19T06:48:29;95250.34;;;48.58;10.99
61961;BME280;47923;42.506;24.192;2022-08-19T06:50:54;95084.50;;;47.61;11.52
61961;BME280;47923;42.506;24.192;2022-08-19T06:53:21;95201.66;;;50.15;10.48
61961;BME280;47923;42.506;24.192;2022-08-19T06:55:46;95205.88;;;48.24;11.35
61961;BME280;47923;42.506;24.192;2022-08-19T06:58:12;95097.66;;;47.99;11.29
61961;BME280;47923;42.506;24.192;2022-08-19T07:00:37;95264.75;;;50.64;10.37
61961;BME280;47923;42.506;24.192;2022-08-19T07:03:03;95235.69;;;50.32;10.00
61961;BME280;47923;42.506;24.192;2022-08-19T07:05:28;95250.38;;;49.75;10.81
61961;BME280;47923;42.506;24.192;2022-08-19T07:07:54;95184.25;;;50.50;10.07
61961;BME280;47923;42.506;24.192;2022-08-19T07:10:19;95217.88;;;51.41;9.58
61961;BME280;47923;42.506;24.192;2022-08-19T07:12:45;95147.19;;;51.66;8.63
61961;BME280;47923;42.506;24.192;2022-08-19T07:15:11;95224.41;;;52.29;8.53
61961;BME280;47923;42.506;24.192;2022-08-19T07:17:37;95190.19;;;51.21;9.21
61961;BME280;47923;42.506;24.192;2022-08-19T07:20:05;95182.06;;;51.58;8.93
61961;BME280;47923;42.506;24.192;2022-08-19T07:22:33;95124.72;;;49.37;10.23
61961;BME280;47923;42.506;24.192;2022-08-19T07:24:59;95268.81;;;51.11;9.71
61961;BME280;47923;42.506;24.192;2022-08-19T07:27:25;95239.81;;;50.29;9.39
61961;BME280;47923;42.506;24.192;2022-08-19T07:29:51;95104.88;;;50.31;9.52
61961;BME280;47923;42.506;24.192;2022-08-19T07:32:17;95208.22;;;51.21;9.02
61961;BME280;47923;42.506;24.192;2022-08-19T07:34:42;95184.25;;;49.99;10.13
61961;BME280;47923;42.506;24.192;2022-08-19T07:37:08;95210.16;;;51.74;9.29
61961;BME280;47923;42.506;24.192;2022-08-19T07:39:37;95102.88;;;50.33;9.40
61961;BME280;47923;42.506;24.192;2022-08-19T07:42:08;95214.13;;;50.19;10.10
61961;BME280;47923;42.506;24.192;2022-08-19T07:44:35;95265.91;;;50.33;9.50
61961;BME280;47923;42.506;24.192;2022-08-19T07:47:01;95198.81;;;51.91;8.76
61961;BME280;47923;42.506;24.192;2022-08-19T07:49:27;95260.28;;;53.99;8.52
61961;BME280;47923;42.506;24.192;2022-08-19T07:51:59;95264.94;;;55.55;6.82
61961;BME280;47923;42.506;24.192;2022-08-19T07:54:27;95176.00;;;51.52;8.15
61961;BME280;47923;42.506;24.192;2022-08-19T07:56:54;95201.16;;;49.44;10.26
61961;BME280;47923;42.506;24.192;2022-08-19T07:59:20;95269.69;;;51.55;10.09
61961;BME280;47923;42.506;24.192;2022-08-19T08:01:47;95209.34;;;53.90;7.80
61961;BME280;47923;42.506;24.192;2022-08-19T08:04:13;95244.84;;;54.82;7.41
61961;BME280;47923;42.506;24.192;2022-08-19T08:06:57;95076.75;;;51.53;7.84
61961;BME280;47923;42.506;24.192;2022-08-19T08:09:43;95168.19;;;51.41;8.94
61961;BME280;47923;42.506;24.192;2022-08-19T08:12:13;95236.09;;;53.57;7.74
61961;BME280;47923;42.506;24.192;2022-08-19T08:14:51;95198.66;;;53.59;7.84
61961;BME280;47923;42.506;24.192;2022-08-19T08:17:20;95236.88;;;53.10;7.69
61961;BME280;47923;42.506;24.192;2022-08-19T08:19:46;95174.09;;;52.61;7.76
61961;BME280;47923;42.506;24.192;2022-08-19T08:22:15;95208.00;;;54.64;6.58
61961;BME280;47923;42.506;24.192;2022-08-19T08:25:09;95173.53;;;52.65;8.09
61961;BME280;47923;42.506;24.192;2022-08-19T08:27:36;95201.47;;;52.31;7.99
61961;BME280;47923;42.506;24.192;2022-08-19T08:30:06;95114.84;;;52.27;7.99
61961;BME280;47923;42.506;24.192;2022-08-19T08:32:34;95152.34;;;52.13;7.68
61961;BME280;47923;42.506;24.192;2022-08-19T08:35:00;95218.63;;;54.22;7.04
61961;BME280;47923;42.506;24.192;2022-08-19T08:37:25;95119.91;;;53.92;7.78
61961;BME280;47923;42.506;24.192;2022-08-19T08:39:51;95193.28;;;54.76;6.62
61961;BME280;47923;42.506;24.192;2022-08-19T08:42:29;95170.84;;;52.85;7.80
61961;BME280;47923;42.506;24.192;2022-08-19T08:44:59;95062.72;;;51.46;8.09
61961;BME280;47923;42.506;24.192;2022-08-19T08:47:28;95095.09;;;52.05;8.11
61961;BME280;47923;42.506;24.192;2022-08-19T08:50:03;95202.50;;;52.08;7.90
61961;BME280;47923;42.506;24.192;2022-08-19T08:52:45;95217.38;;;49.16;9.71
61961;BME280;47923;42.506;24.192;2022-08-19T08:55:17;95164.06;;;49.60;8.86
61961;BME280;47923;42.506;24.192;2022-08-19T09:00:16;95140.09;;;50.18;9.13
61961;BME280;47923;42.506;24.192;2022-08-19T09:02:43;95141.91;;;49.99;8.64
61961;BME280;47923;42.506;24.192;2022-08-19T09:05:10;95198.44;;;50.34;9.03
61961;BME280;47923;42.506;24.192;2022-08-19T09:10:32;95193.03;;;52.51;7.98
61961;BME280;47923;42.506;24.192;2022-08-19T09:13:29;95195.59;;;51.56;8.45
61961;BME280;47923;42.506;24.192;2022-08-19T09:16:03;95177.38;;;51.10;8.19
61961;BME280;47923;42.506;24.192;2022-08-19T09:18:49;95113.56;;;50.45;8.56
61961;BME280;47923;42.506;24.192;2022-08-19T09:21:18;95176.97;;;52.61;7.92
61961;BME280;47923;42.506;24.192;2022-08-19T09:23:45;95149.72;;;53.12;7.20
61961;BME280;47923;42.506;24.192;2022-08-19T09:26:13;95179.44;;;54.93;6.95
61961;BME280;47923;42.506;24.192;2022-08-19T09:28:41;95148.69;;;53.72;6.99
61961;BME280;47923;42.506;24.192;2022-08-19T09:31:11;95143.75;;;53.93;5.95
61961;BME280;47923;42.506;24.192;2022-08-19T09:33:37;95155.84;;;53.20;6.85
61961;BME280;47923;42.506;24.192;2022-08-19T09:36:08;95122.91;;;52.14;6.88
61961;BME280;47923;42.506;24.192;2022-08-19T09:38:35;95171.66;;;53.19;6.81
61961;BME280;47923;42.506;24.192;2022-08-19T09:41:23;95080.69;;;51.17;6.76
61961;BME280;47923;42.506;24.192;2022-08-19T09:43:51;94940.53;;;48.52;8.12
61961;BME280;47923;42.506;24.192;2022-08-19T09:46:25;95125.56;;;50.41;7.11
61961;BME280;47923;42.506;24.192;2022-08-19T09:48:51;95126.25;;;50.67;7.59
61961;BME280;47923;42.506;24.192;2022-08-19T09:51:23;95115.59;;;48.00;9.06
61961;BME280;47923;42.506;24.192;2022-08-19T09:53:50;95033.72;;;48.41;8.75
61961;BME280;47923;42.506;24.192;2022-08-19T09:56:17;95156.31;;;51.05;7.61
61961;BME280;47923;42.506;24.192;2022-08-19T09:58:43;95033.00;;;50.84;6.74
61961;BME280;47923;42.506;24.192;2022-08-19T10:01:16;95004.31;;;49.64;7.55
61961;BME280;47923;42.506;24.192;2022-08-19T10:03:42;95077.38;;;50.95;7.05
61961;BME280;47923;42.506;24.192;2022-08-19T10:06:08;95012.91;;;49.90;6.85
61961;BME280;47923;42.506;24.192;2022-08-19T10:08:36;95056.75;;;50.57;7.07
61961;BME280;47923;42.506;24.192;2022-08-19T10:11:03;94958.59;;;48.92;7.29
61961;BME280;47923;42.506;24.192;2022-08-19T10:13:30;94909.88;;;48.92;8.10
61961;BME280;47923;42.506;24.192;2022-08-19T10:16:06;95050.44;;;50.88;6.51
61961;BME280;47923;42.506;24.192;2022-08-19T10:18:33;95106.06;;;50.79;7.28
61961;BME280;47923;42.506;24.192;2022-08-19T10:21:09;95038.28;;;51.03;6.55
61961;BME280;47923;42.506;24.192;2022-08-19T10:23:37;94929.56;;;50.15;6.02
61961;BME280;47923;42.506;24.192;2022-08-19T10:26:04;95108.25;;;51.35;6.74
61961;BME280;47923;42.506;24.192;2022-08-19T10:28:34;94986.09;;;51.38;6.35
61961;BME280;47923;42.506;24.192;2022-08-19T10:31:07;95052.47;;;49.66;7.09
61961;BME280;47923;42.506;24.192;2022-08-19T10:33:34;95101.03;;;49.62;7.72
61961;BME280;47923;42.506;24.192;2022-08-19T10:36:05;95001.53;;;47.61;8.21
61961;BME280;47923;42.506;24.192;2022-08-19T10:38:31;95083.22;;;47.09;9.51
61961;BME280;47923;42.506;24.192;2022-08-19T10:40:57;95100.69;;;46.01;9.46
61961;BME280;47923;42.506;24.192;2022-08-19T10:43:23;95094.50;;;44.69;10.31
61961;BME280;47923;42.506;24.192;2022-08-19T10:45:54;95033.41;;;44.06;10.81
61961;BME280;47923;42.506;24.192;2022-08-19T10:48:24;95008.16;;;42.95;12.09
61961;BME280;47923;42.506;24.192;2022-08-19T10:50:50;94990.75;;;42.39;12.01
61961;BME280;47923;42.506;24.192;2022-08-19T10:53:34;95055.44;;;42.40;12.38
61961;BME280;47923;42.506;24.192;2022-08-19T10:55:59;95070.97;;;42.14;12.53
61961;BME280;47923;42.506;24.192;2022-08-19T10:58:43;95056.66;;;41.64;12.88
61961;BME280;47923;42.506;24.192;2022-08-19T11:01:09;95049.50;;;41.31;13.43
61961;BME280;47923;42.506;24.192;2022-08-19T11:03:35;95080.72;;;41.56;13.28
61961;BME280;47923;42.506;24.192;2022-08-19T11:06:04;94997.13;;;40.76;13.53
61961;BME280;47923;42.506;24.192;2022-08-19T11:08:30;95128.09;;;41.15;13.92
61961;BME280;47923;42.506;24.192;2022-08-19T11:10:58;95071.75;;;39.15;14.64
61961;BME280;47923;42.506;24.192;2022-08-19T11:13:27;95003.94;;;37.93;15.80
61961;BME280;47923;42.506;24.192;2022-08-19T11:18:28;94973.94;;;37.82;16.30
61961;BME280;47923;42.506;24.192;2022-08-19T11:20:54;95027.94;;;37.86;16.44
61961;BME280;47923;42.506;24.192;2022-08-19T11:23:19;95059.06;;;38.23;16.27
61961;BME280;47923;42.506;24.192;2022-08-19T11:25:45;94971.13;;;37.61;16.40
61961;BME280;47923;42.506;24.192;2022-08-19T11:28:12;95026.56;;;37.80;16.72
61961;BME280;47923;42.506;24.192;2022-08-19T11:30:39;95114.06;;;38.29;16.55
61961;BME280;47923;42.506;24.192;2022-08-19T11:33:04;95033.81;;;37.54;16.79
61961;BME280;47923;42.506;24.192;2022-08-19T11:35:30;95027.03;;;37.37;16.19
61961;BME280;47923;42.506;24.192;2022-08-19T11:37:56;94979.00;;;37.08;15.84
61961;BME280;47923;42.506;24.192;2022-08-19T11:40:26;95009.19;;;37.07;16.11
61961;BME280;47923;42.506;24.192;2022-08-19T11:42:52;94995.66;;;36.00;17.10
61961;BME280;47923;42.506;24.192;2022-08-19T11:45:20;95008.03;;;35.78;17.89
61961;BME280;47923;42.506;24.192;2022-08-19T11:47:46;94904.00;;;35.52;18.40
61961;BME280;47923;42.506;24.192;2022-08-19T11:50:13;94942.41;;;35.62;18.32
61961;BME280;47923;42.506;24.192;2022-08-19T11:52:38;94930.50;;;35.69;18.11
61961;BME280;47923;42.506;24.192;2022-08-19T11:55:04;94941.47;;;35.86;17.67
61961;BME280;47923;42.506;24.192;2022-08-19T11:57:30;94920.03;;;35.83;18.43
61961;BME280;47923;42.506;24.192;2022-08-19T11:59:56;95000.69;;;36.73;17.48
61961;BME280;47923;42.506;24.192;2022-08-19T12:02:21;95088.38;;;37.65;17.45
61961;BME280;47923;42.506;24.192;2022-08-19T12:04:48;94994.84;;;36.98;16.89
61961;BME280;47923;42.506;24.192;2022-08-19T12:07:14;94907.78;;;36.52;17.36
61961;BME280;47923;42.506;24.192;2022-08-19T12:09:39;95012.56;;;37.06;17.45
61961;BME280;47923;42.506;24.192;2022-08-19T12:12:05;94980.88;;;36.92;16.92
61961;BME280;47923;42.506;24.192;2022-08-19T12:14:31;94986.19;;;36.83;17.12
61961;BME280;47923;42.506;24.192;2022-08-19T12:16:57;94955.25;;;36.43;17.04
61961;BME280;47923;42.506;24.192;2022-08-19T12:19:23;95052.75;;;37.06;17.72
61961;BME280;47923;42.506;24.192;2022-08-19T12:21:50;95039.75;;;36.64;17.42
61961;BME280;47923;42.506;24.192;2022-08-19T12:24:16;95041.75;;;36.23;18.37
61961;BME280;47923;42.506;24.192;2022-08-19T12:26:48;95060.69;;;35.91;18.16
61961;BME280;47923;42.506;24.192;2022-08-19T12:29:14;94818.66;;;34.02;19.23
61961;BME280;47923;42.506;24.192;2022-08-19T12:31:40;95002.63;;;35.10;19.35
61961;BME280;47923;42.506;24.192;2022-08-19T12:34:05;94942.69;;;34.70;18.96
61961;BME280;47923;42.506;24.192;2022-08-19T12:36:31;95009.47;;;34.72;19.21
61961;BME280;47923;42.506;24.192;2022-08-19T12:38:58;94778.88;;;33.60;19.90
61961;BME280;47923;42.506;24.192;2022-08-19T12:41:24;94893.63;;;34.58;19.26
61961;BME280;47923;42.506;24.192;2022-08-19T12:43:50;94796.09;;;33.94;18.97
61961;BME280;47923;42.506;24.192;2022-08-19T12:46:17;95087.44;;;35.22;18.81
61961;BME280;47923;42.506;24.192;2022-08-19T12:48:43;94901.97;;;34.45;18.81
61961;BME280;47923;42.506;24.192;2022-08-19T12:51:16;94800.19;;;34.12;18.88
61961;BME280;47923;42.506;24.192;2022-08-19T12:53:42;94956.94;;;35.10;19.03
61961;BME280;47923;42.506;24.192;2022-08-19T12:56:09;94976.16;;;35.06;19.19
61961;BME280;47923;42.506;24.192;2022-08-19T12:58:36;94911.22;;;34.58;19.13
61961;BME280;47923;42.506;24.192;2022-08-19T13:01:12;94925.19;;;34.64;18.55
61961;BME280;47923;42.506;24.192;2022-08-19T13:03:38;95025.06;;;35.10;18.54
61961;BME280;47923;42.506;24.192;2022-08-19T13:06:04;94960.84;;;34.45;18.66